createdAt,value
2022-10-31T00:04:07.219Z,71.22
2022-10-31T00:09:10.571Z,71.25
2022-10-31T00:14:11.926Z,71.53
2022-10-31T00:19:13.357Z,71.42
2022-10-31T00:24:14.874Z,71.34
2022-10-31T00:29:16.250Z,71.57
2022-10-31T00:34:17.609Z,71.17
2022-10-31T00:39:18.948Z,71.69
2022-10-31T00:44:20.356Z,71.69
2022-10-31T00:49:21.757Z,71.51
2022-10-31T00:54:23.122Z,71.58
2022-10-31T00:59:24.507Z,71.48
2022-10-31T01:04:25.870Z,71.82
2022-10-31T01:09:27.290Z,71.51
2022-10-31T01:14:28.756Z,71.50
2022-10-31T01:19:30.157Z,71.69
2022-10-31T01:24:31.617Z,71.41
2022-10-31T01:29:32.953Z,71.91
2022-10-31T01:34:34.357Z,71.69
2022-10-31T01:39:35.847Z,71.57
2022-10-31T01:44:37.151Z,71.21
2022-10-31T01:49:49.817Z,71.45
2022-10-31T01:55:16.563Z,71.39
2022-10-31T02:00:19.958Z,71.85
2022-10-31T02:05:25.160Z,71.58
2022-10-31T02:10:28.249Z,71.92
2022-10-31T02:15:30.738Z,72.13
2022-10-31T02:21:17.094Z,71.84
2022-10-31T02:26:35.275Z,71.91
2022-10-31T02:31:51.878Z,72.26
2022-10-31T02:36:59.842Z,72.06
2022-10-31T02:42:26.154Z,72.63
2022-10-31T02:47:30.128Z,72.08
2022-10-31T02:52:33.228Z,72.05
2022-10-31T02:57:37.390Z,71.86
2022-10-31T03:02:42.146Z,71.98
2022-10-31T03:07:57.732Z,72.29
2022-10-31T03:13:25.969Z,72.47
2022-10-31T03:18:57.259Z,71.98
2022-10-31T03:24:00.687Z,72.40
2022-10-31T03:29:05.892Z,72.23
2022-10-31T03:34:09.302Z,72.39
2022-10-31T03:39:15.298Z,72.41
2022-10-31T03:44:20.004Z,72.02
2022-10-31T03:49:21.801Z,72.38
2022-10-31T03:54:46.176Z,72.05
2022-10-31T04:00:20.670Z,72.31
2022-10-31T04:05:22.672Z,72.28
2022-10-31T04:10:31.890Z,72.57
2022-10-31T04:15:36.389Z,72.61
2022-10-31T04:20:39.845Z,72.70
2022-10-31T04:25:41.186Z,72.45
2022-10-31T04:30:42.542Z,72.88
2022-10-31T04:35:44.001Z,73.09
2022-10-31T04:40:46.196Z,73.46
2022-10-31T04:45:47.664Z,73.12
2022-10-31T04:50:49.021Z,72.84
2022-10-31T04:55:50.372Z,73.07
2022-10-31T05:00:55.605Z,72.48
2022-10-31T05:05:57.062Z,72.70
2022-10-31T05:11:04.429Z,72.53
2022-10-31T05:16:06.494Z,73.52
2022-10-31T05:21:07.883Z,73.39
2022-10-31T05:26:09.242Z,73.18
2022-10-31T05:31:10.735Z,73.31
2022-10-31T05:36:12.110Z,73.77
2022-10-31T05:41:13.487Z,74.02
2022-10-31T05:46:14.873Z,74.04
2022-10-31T05:51:16.208Z,73.61
2022-10-31T05:56:17.535Z,73.33
2022-10-31T06:01:18.924Z,73.01
2022-10-31T06:06:20.328Z,73.14
2022-10-31T06:11:21.717Z,73.24
2022-10-31T06:16:23.090Z,72.80
2022-10-31T06:21:25.243Z,73.09
2022-10-31T06:26:26.633Z,73.12
2022-10-31T06:31:28.064Z,72.87
2022-10-31T06:36:29.401Z,73.06
2022-10-31T06:41:30.770Z,73.46
2022-10-31T06:46:32.109Z,73.69
2022-10-31T06:51:33.481Z,73.17
2022-10-31T06:56:35.052Z,73.38
2022-10-31T07:01:36.516Z,73.23
2022-10-31T07:06:38.379Z,72.76
2022-10-31T07:11:39.732Z,73.01
2022-10-31T07:16:41.092Z,73.28
2022-10-31T07:21:42.494Z,73.32
2022-10-31T07:26:44.524Z,72.85
2022-10-31T07:31:47.104Z,73.02
2022-10-31T07:36:48.442Z,73.19
2022-10-31T07:41:49.801Z,73.15
2022-10-31T07:46:51.203Z,73.29
2022-10-31T07:51:52.560Z,72.91
2022-10-31T07:56:53.904Z,72.69
2022-10-31T08:01:55.235Z,72.83
2022-10-31T08:06:56.610Z,72.73
2022-10-31T08:11:58.249Z,72.34
2022-10-31T08:16:59.625Z,72.35
2022-10-31T08:22:01.186Z,72.20
2022-10-31T08:27:02.598Z,72.10
2022-10-31T08:32:04.104Z,72.11
2022-10-31T08:37:05.615Z,72.06
2022-10-31T08:42:07.003Z,71.88
2022-10-31T08:47:08.361Z,71.59
2022-10-31T08:52:14.317Z,71.56
2022-10-31T08:57:16.016Z,71.54
2022-10-31T09:02:17.416Z,71.22
2022-10-31T09:07:20.995Z,71.24
2022-10-31T09:12:24.807Z,71.21
2022-10-31T09:17:27.666Z,71.02
2022-10-31T09:22:29.049Z,71.21
2022-10-31T09:27:30.394Z,71.23
2022-10-31T09:32:32.055Z,71.01
2022-10-31T09:37:33.414Z,71.19
2022-10-31T09:43:04.469Z,70.73
2022-10-31T09:48:28.086Z,70.90
2022-10-31T09:53:58.374Z,70.42
2022-10-31T09:59:01.632Z,70.77
2022-10-31T10:04:33.300Z,70.58
2022-10-31T10:09:34.699Z,70.37
2022-10-31T10:14:56.426Z,70.07
2022-10-31T10:20:21.011Z,69.88
2022-10-31T10:25:34.303Z,69.48
2022-10-31T10:30:45.683Z,69.19
2022-10-31T10:36:00.266Z,69.10
2022-10-31T10:41:05.907Z,68.69
2022-10-31T10:46:45.340Z,68.56
2022-10-31T10:52:49.277Z,68.43
2022-10-31T10:58:03.524Z,67.96
2022-10-31T11:03:06.368Z,67.45
2022-10-31T11:08:08.818Z,67.28
2022-10-31T11:13:13.275Z,66.82
2022-10-31T11:23:33.732Z,65.91
2022-10-31T11:28:36.812Z,65.41
2022-10-31T11:33:48.909Z,64.82
2022-10-31T11:38:51.531Z,64.53
2022-10-31T11:44:18.737Z,64.34
2022-10-31T11:49:36.087Z,63.88
2022-10-31T11:54:46.242Z,63.14
2022-10-31T11:59:53.909Z,63.16
2022-10-31T12:05:17.524Z,62.58
2022-10-31T12:10:22.604Z,61.99
2022-10-31T12:15:34.304Z,61.13
2022-10-31T12:21:12.868Z,60.91
2022-10-31T12:26:35.494Z,60.36
2022-10-31T12:31:53.309Z,60.20
2022-10-31T12:37:27.070Z,59.75
2022-10-31T12:43:02.975Z,59.48
2022-10-31T12:48:33.822Z,59.37
2022-10-31T12:54:01.675Z,58.96
2022-10-31T12:59:18.020Z,58.61
2022-10-31T13:04:29.252Z,58.57
2022-10-31T13:09:36.371Z,58.48
2022-10-31T13:14:42.868Z,57.74
2022-10-31T13:19:46.249Z,57.63
2022-10-31T13:25:00.510Z,56.98
2022-10-31T13:30:06.713Z,56.54
2022-10-31T13:35:18.007Z,56.81
2022-10-31T13:40:58.916Z,57.03
2022-10-31T13:46:00.359Z,56.82
2022-10-31T13:51:07.196Z,56.68
2022-10-31T13:56:08.493Z,56.93
2022-10-31T14:01:15.832Z,56.91
2022-10-31T14:06:17.592Z,57.10
2022-10-31T14:11:32.830Z,56.95
2022-10-31T14:16:41.224Z,57.12
2022-10-31T14:21:46.232Z,57.35
2022-10-31T14:26:58.820Z,57.44
2022-10-31T14:32:13.517Z,58.22
2022-10-31T14:37:25.721Z,58.40
2022-10-31T14:42:37.047Z,58.42
2022-10-31T14:47:58.407Z,58.73
2022-10-31T14:53:04.259Z,59.29
2022-10-31T14:58:08.974Z,59.49
2022-10-31T15:03:25.074Z,59.10
2022-10-31T15:08:33.596Z,58.49
2022-10-31T15:13:35.009Z,58.88
2022-10-31T15:18:41.225Z,58.91
2022-10-31T15:23:43.411Z,58.89
2022-10-31T15:28:45.504Z,59.08
2022-10-31T15:33:50.509Z,59.02
2022-10-31T15:38:52.065Z,59.33
2022-10-31T15:43:53.564Z,59.69
2022-10-31T15:48:55.162Z,60.94
2022-10-31T15:53:57.150Z,60.99
2022-10-31T15:59:01.091Z,61.27
2022-10-31T16:04:08.546Z,62.32
2022-10-31T16:09:24.095Z,62.95
2022-10-31T16:14:31.937Z,63.04
2022-10-31T16:19:36.281Z,62.94
2022-10-31T16:24:52.941Z,63.38
2022-10-31T16:29:54.750Z,63.86
2022-10-31T16:35:11.452Z,64.40
2022-10-31T16:40:16.262Z,64.86
2022-10-31T16:45:23.474Z,65.40
2022-10-31T16:50:27.804Z,65.86
2022-10-31T16:55:29.165Z,66.15
2022-10-31T17:00:31.586Z,66.43
2022-10-31T17:05:33.448Z,66.72
2022-10-31T17:10:35.574Z,67.60
2022-10-31T17:15:44.964Z,67.73
2022-10-31T17:20:47.552Z,67.94
2022-10-31T17:25:48.873Z,67.42
2022-10-31T17:30:50.486Z,67.73
2022-10-31T17:35:51.827Z,67.41
2022-10-31T17:40:53.218Z,67.53
2022-10-31T17:45:54.562Z,68.13
2022-10-31T17:51:00.096Z,68.21
2022-10-31T17:56:06.676Z,68.04
2022-10-31T18:01:10.461Z,68.57
2022-10-31T18:06:14.366Z,68.54
2022-10-31T18:11:21.653Z,69.12
2022-10-31T18:16:23.638Z,69.71
2022-10-31T18:21:25.713Z,69.72
2022-10-31T18:26:27.814Z,69.49
2022-10-31T18:31:29.296Z,69.60
2022-10-31T18:36:30.638Z,70.17
2022-10-31T18:41:32.165Z,69.82
2022-10-31T18:46:34.907Z,69.98
2022-10-31T18:51:36.237Z,70.49
2022-10-31T18:56:37.622Z,70.40
2022-10-31T19:01:39.498Z,70.19
2022-10-31T19:06:40.907Z,70.46
2022-10-31T19:11:42.272Z,71.46
2022-10-31T19:16:43.649Z,71.55
2022-10-31T19:21:45.000Z,71.19
2022-10-31T19:26:46.882Z,70.38
2022-10-31T19:31:48.394Z,70.52
2022-10-31T19:36:49.757Z,70.50
2022-10-31T19:41:51.123Z,70.79
2022-10-31T19:46:53.769Z,70.60
2022-10-31T19:51:55.449Z,70.75
2022-10-31T19:56:56.811Z,70.62
2022-10-31T20:01:58.179Z,70.46
2022-10-31T20:06:59.571Z,70.66
2022-10-31T20:12:01.176Z,70.78
2022-10-31T20:17:02.501Z,71.02
2022-10-31T20:22:03.860Z,71.04
2022-10-31T20:27:05.672Z,71.02
2022-10-31T20:32:07.043Z,70.91
2022-10-31T20:37:08.474Z,71.04
2022-10-31T20:42:10.140Z,71.01
2022-10-31T20:47:11.462Z,71.11
2022-10-31T20:52:12.813Z,70.90
2022-10-31T20:57:14.216Z,70.83
2022-10-31T21:02:15.886Z,71.17
2022-10-31T21:07:17.334Z,71.07
2022-10-31T21:12:18.709Z,71.14
2022-10-31T21:17:20.063Z,71.29
2022-10-31T21:22:21.726Z,71.24
2022-10-31T21:27:23.715Z,71.30
2022-10-31T21:32:25.229Z,71.14
2022-10-31T21:37:26.560Z,71.48
2022-10-31T21:42:27.926Z,71.58
2022-10-31T21:47:29.256Z,71.63
2022-10-31T21:52:31.145Z,71.50
2022-10-31T21:57:32.650Z,71.71
2022-10-31T22:02:34.024Z,71.27
2022-10-31T22:07:35.348Z,71.82
2022-10-31T22:12:36.681Z,71.68
2022-10-31T22:17:38.072Z,71.77
2022-10-31T22:22:39.422Z,71.79
2022-10-31T22:27:42.441Z,71.95
2022-10-31T22:32:43.789Z,71.91
2022-10-31T22:37:45.137Z,71.87
2022-10-31T22:42:46.527Z,72.24
2022-10-31T22:47:47.887Z,72.39
2022-10-31T22:52:49.221Z,72.29
2022-10-31T22:57:50.619Z,72.66
2022-10-31T23:02:51.945Z,72.93
2022-10-31T23:07:53.296Z,72.63
2022-10-31T23:13:13.133Z,72.49
2022-10-31T23:18:24.235Z,72.47
2022-10-31T23:23:36.529Z,72.36
2022-10-31T23:28:37.865Z,72.43
2022-10-31T23:33:39.206Z,72.58
2022-10-31T23:38:40.605Z,72.43
2022-10-31T23:43:41.943Z,72.15
2022-10-31T23:48:43.361Z,72.32
2022-10-31T23:53:45.610Z,72.44
2022-10-31T23:58:46.995Z,72.48
